createdAt,value
2018-12-14T00:01:52.356Z,23.87
2018-12-14T00:04:19.835Z,25.27
2018-12-14T00:06:47.341Z,24.20
2018-12-14T00:09:14.858Z,23.60
2018-12-14T00:11:45.548Z,23.37
2018-12-14T00:14:11.836Z,25.63
2018-12-14T00:16:39.580Z,25.23
2018-12-14T00:19:07.056Z,23.07
2018-12-14T00:21:34.532Z,25.83
2018-12-14T00:24:02.040Z,24.00
2018-12-14T00:26:29.552Z,26.03
2018-12-14T00:28:57.429Z,26.37
2018-12-14T00:31:24.946Z,24.27
2018-12-14T00:33:52.420Z,24.87
2018-12-14T00:36:19.907Z,25.57
2018-12-14T00:38:47.408Z,25.53
2018-12-14T00:41:14.884Z,24.03
2018-12-14T00:43:42.365Z,24.30
2018-12-14T00:46:09.864Z,25.70
2018-12-14T00:48:37.340Z,25.37
2018-12-14T00:51:04.822Z,24.50
2018-12-14T00:53:32.334Z,23.23
2018-12-14T00:55:59.808Z,24.07
2018-12-14T00:58:27.285Z,22.53
2018-12-14T01:00:54.786Z,23.13
2018-12-14T01:03:22.271Z,23.80
2018-12-14T01:05:49.745Z,24.27
2018-12-14T01:08:17.384Z,23.07
2018-12-14T01:10:44.867Z,23.67
2018-12-14T01:13:12.344Z,23.33
2018-12-14T01:15:39.876Z,23.43
2018-12-14T01:18:07.363Z,23.40
2018-12-14T01:20:34.847Z,23.93
2018-12-14T01:23:02.737Z,22.87
2018-12-14T01:25:30.217Z,23.30
2018-12-14T01:27:57.725Z,22.90
2018-12-14T01:30:25.723Z,23.97
2018-12-14T01:32:53.220Z,24.30
2018-12-14T01:35:20.696Z,22.90
2018-12-14T01:37:48.197Z,23.57
2018-12-14T01:40:15.676Z,23.47
2018-12-14T01:42:43.148Z,22.93
2018-12-14T01:45:10.661Z,22.83
2018-12-14T01:47:38.144Z,23.53
2018-12-14T01:50:05.621Z,23.07
2018-12-14T01:52:33.626Z,24.27
2018-12-14T01:55:01.102Z,24.40
2018-12-14T01:57:29.072Z,23.60
2018-12-14T01:59:56.567Z,23.10
2018-12-14T02:02:24.068Z,22.23
2018-12-14T02:04:51.550Z,23.33
2018-12-14T02:07:19.045Z,24.30
2018-12-14T02:09:46.521Z,23.67
2018-12-14T02:12:14.012Z,23.23
2018-12-14T02:14:41.514Z,23.20
2018-12-14T02:17:08.995Z,23.63
2018-12-14T02:19:36.476Z,22.40
2018-12-14T02:22:03.989Z,23.70
2018-12-14T02:24:31.463Z,23.37
2018-12-14T02:26:58.932Z,22.80
2018-12-14T02:29:26.496Z,23.33
2018-12-14T02:31:54.142Z,22.30
2018-12-14T02:34:21.620Z,22.93
2018-12-14T02:36:49.255Z,24.20
2018-12-14T02:39:16.735Z,24.47
2018-12-14T02:41:44.216Z,23.17
2018-12-14T02:44:11.716Z,23.53
2018-12-14T02:46:39.196Z,23.90
2018-12-14T02:49:06.681Z,23.00
2018-12-14T02:51:34.203Z,23.70
2018-12-14T02:54:01.673Z,24.97
2018-12-14T02:56:29.157Z,22.97
2018-12-14T02:58:56.775Z,22.83
2018-12-14T03:01:24.253Z,22.37
2018-12-14T03:03:51.733Z,23.43
2018-12-14T03:06:19.240Z,24.20
2018-12-14T03:08:46.712Z,23.83
2018-12-14T03:11:14.194Z,24.63
2018-12-14T03:13:41.690Z,22.90
2018-12-14T03:16:09.160Z,22.77
2018-12-14T03:18:36.633Z,24.33
2018-12-14T03:21:04.148Z,24.47
2018-12-14T03:23:31.700Z,23.70
2018-12-14T03:25:59.274Z,24.80
2018-12-14T03:28:26.774Z,24.23
2018-12-14T03:30:54.249Z,25.10
2018-12-14T03:33:21.933Z,23.43
2018-12-14T03:35:49.441Z,25.37
2018-12-14T03:38:16.929Z,24.17
2018-12-14T03:40:44.414Z,24.57
2018-12-14T03:43:11.915Z,24.00
2018-12-14T03:45:39.384Z,25.77
2018-12-14T03:48:06.867Z,24.13
2018-12-14T03:50:34.372Z,25.13
2018-12-14T03:53:01.855Z,24.70
2018-12-14T03:55:29.335Z,25.30
2018-12-14T03:57:57.252Z,25.10
2018-12-14T04:00:24.868Z,25.43
2018-12-14T04:02:52.735Z,25.47
2018-12-14T04:05:20.438Z,25.13
2018-12-14T04:07:47.912Z,23.83
2018-12-14T04:10:15.560Z,26.53
2018-12-14T04:12:43.080Z,25.80
2018-12-14T04:15:10.559Z,25.83
2018-12-14T04:17:38.033Z,25.60
2018-12-14T04:20:05.734Z,26.60
2018-12-14T04:22:33.220Z,25.33
2018-12-14T04:25:00.696Z,25.60
2018-12-14T04:27:28.193Z,25.17
2018-12-14T04:29:55.664Z,27.63
2018-12-14T04:32:23.620Z,26.63
2018-12-14T04:34:51.463Z,26.80
2018-12-14T04:37:18.954Z,26.40
2018-12-14T04:39:46.444Z,25.73
2018-12-14T04:42:14.045Z,27.20
2018-12-14T04:44:41.529Z,25.73
2018-12-14T04:47:09.505Z,26.60
2018-12-14T04:49:37.625Z,26.37
2018-12-14T04:52:07.090Z,28.07
2018-12-14T04:54:34.573Z,27.50
2018-12-14T04:57:02.072Z,27.00
2018-12-14T04:59:29.543Z,26.10
2018-12-14T05:01:57.020Z,27.40
2018-12-14T05:04:24.524Z,27.43
2018-12-14T05:06:51.997Z,27.03
2018-12-14T05:09:19.468Z,27.10
2018-12-14T05:11:47.012Z,28.20
2018-12-14T05:14:14.589Z,26.70
2018-12-14T05:16:42.070Z,26.13
2018-12-14T05:19:09.580Z,26.77
2018-12-14T05:21:37.140Z,27.07
2018-12-14T05:24:04.616Z,26.67
2018-12-14T05:26:32.125Z,25.70
2018-12-14T05:28:59.606Z,26.67
2018-12-14T05:31:27.080Z,25.70
2018-12-14T05:33:55.097Z,26.40
2018-12-14T05:36:23.169Z,24.73
2018-12-14T05:38:50.648Z,26.57
2018-12-14T05:41:18.168Z,27.67
2018-12-14T05:43:45.641Z,25.67
2018-12-14T05:46:13.121Z,26.03
2018-12-14T05:48:40.624Z,26.73
2018-12-14T05:51:08.101Z,26.03
2018-12-14T05:53:35.573Z,26.40
2018-12-14T05:56:03.072Z,26.27
2018-12-14T05:58:30.544Z,25.00
2018-12-14T06:00:58.022Z,26.97
2018-12-14T06:03:25.521Z,26.40
2018-12-14T06:05:53.005Z,26.63
2018-12-14T06:08:20.480Z,27.23
2018-12-14T06:10:47.982Z,27.23
2018-12-14T06:13:15.457Z,27.27
2018-12-14T06:15:42.932Z,26.77
2018-12-14T06:18:10.439Z,25.90
2018-12-14T06:20:37.925Z,26.73
2018-12-14T06:23:05.404Z,28.87
2018-12-14T06:25:32.900Z,28.50
2018-12-14T06:28:00.379Z,30.27
2018-12-14T06:30:27.853Z,27.93
2018-12-14T06:32:55.360Z,28.97
2018-12-14T06:35:22.832Z,30.03
2018-12-14T06:37:50.744Z,28.57
2018-12-14T06:40:18.241Z,31.33
2018-12-14T06:42:45.725Z,30.10
2018-12-14T06:45:13.192Z,29.63
2018-12-14T06:47:40.904Z,30.57
2018-12-14T06:50:08.384Z,30.27
2018-12-14T06:52:35.855Z,31.57
2018-12-14T06:55:03.676Z,31.27
2018-12-14T06:57:31.154Z,31.93
2018-12-14T06:59:58.644Z,31.63
2018-12-14T07:02:26.153Z,33.57
2018-12-14T07:04:53.637Z,33.67
2018-12-14T07:07:21.120Z,31.73
2018-12-14T07:09:48.632Z,33.27
2018-12-14T07:12:16.117Z,31.67
2018-12-14T07:14:43.623Z,33.00
2018-12-14T07:17:11.128Z,33.13
2018-12-14T07:19:38.612Z,34.13
2018-12-14T07:22:06.101Z,35.33
2018-12-14T07:24:33.613Z,34.67
2018-12-14T07:27:01.278Z,35.50
2018-12-14T07:29:28.831Z,35.33
2018-12-14T07:31:56.413Z,36.10
2018-12-14T07:34:23.901Z,35.53
2018-12-14T07:36:51.373Z,37.83
2018-12-14T07:39:19.280Z,37.30
2018-12-14T07:41:46.760Z,36.47
2018-12-14T07:44:14.544Z,38.30
2018-12-14T07:46:42.040Z,39.00
2018-12-14T07:49:09.521Z,38.03
2018-12-14T07:51:38.848Z,38.33
2018-12-14T07:54:06.384Z,38.03
2018-12-14T07:56:33.864Z,38.10
2018-12-14T07:59:01.644Z,39.07
2018-12-14T08:01:29.165Z,39.07
2018-12-14T08:03:56.640Z,40.10
2018-12-14T08:06:24.120Z,38.90
2018-12-14T08:08:51.632Z,38.70
2018-12-14T08:11:19.104Z,40.47
2018-12-14T08:13:48.842Z,39.80
2018-12-14T08:16:16.357Z,38.90
2018-12-14T08:18:46.645Z,39.23
2018-12-14T08:21:14.124Z,40.07
2018-12-14T08:23:42.826Z,40.60
2018-12-14T08:26:10.308Z,38.53
2018-12-14T08:28:37.789Z,39.00
2018-12-14T08:31:05.355Z,39.07
2018-12-14T08:33:35.226Z,38.10
2018-12-14T08:36:02.711Z,38.67
2018-12-14T08:38:30.213Z,39.27
2018-12-14T08:41:00.335Z,38.33
2018-12-14T08:43:27.959Z,38.13
2018-12-14T08:45:55.736Z,39.33
2018-12-14T08:48:23.336Z,37.87
2018-12-14T08:50:50.928Z,36.90
2018-12-14T08:53:18.834Z,38.17
2018-12-14T08:55:46.315Z,37.83
2018-12-14T08:58:13.795Z,38.57
2018-12-14T09:00:41.308Z,36.60
2018-12-14T09:03:08.784Z,38.07
2018-12-14T09:05:36.260Z,37.27
2018-12-14T09:08:03.769Z,36.33
2018-12-14T09:10:31.341Z,37.60
2018-12-14T09:12:58.810Z,37.23
2018-12-14T09:15:26.473Z,36.10
2018-12-14T09:17:53.952Z,37.07
2018-12-14T09:20:21.429Z,36.60
2018-12-14T09:22:49.525Z,37.77
2018-12-14T09:25:16.998Z,36.40
2018-12-14T09:27:50.048Z,38.53
2018-12-14T09:30:17.723Z,36.00
2018-12-14T09:32:45.197Z,34.73
2018-12-14T09:35:12.674Z,36.47
2018-12-14T09:37:40.176Z,36.13
2018-12-14T09:40:07.657Z,37.60
2018-12-14T09:42:35.136Z,36.50
2018-12-14T09:45:02.644Z,37.83
2018-12-14T09:47:30.498Z,36.40
2018-12-14T09:49:57.979Z,36.47
2018-12-14T09:52:25.479Z,37.07
2018-12-14T09:54:52.957Z,36.63
2018-12-14T09:57:20.432Z,37.33
2018-12-14T09:59:47.951Z,35.60
2018-12-14T10:02:15.428Z,37.87
2018-12-14T10:04:42.915Z,35.80
2018-12-14T10:07:10.408Z,36.00
2018-12-14T10:09:37.885Z,33.90
2018-12-14T10:12:05.357Z,33.70
2018-12-14T10:14:32.897Z,34.70
2018-12-14T10:17:00.381Z,33.57
2018-12-14T10:19:27.860Z,34.47
2018-12-14T10:21:55.482Z,35.20
2018-12-14T10:24:22.964Z,35.83
2018-12-14T10:26:50.472Z,36.43
2018-12-14T10:29:17.973Z,35.43
2018-12-14T10:31:45.448Z,35.80
2018-12-14T10:34:12.931Z,35.53
2018-12-14T10:36:40.429Z,34.93
2018-12-14T10:39:07.907Z,34.53
2018-12-14T10:41:35.388Z,39.13
2018-12-14T10:44:07.400Z,38.37
2018-12-14T10:46:32.521Z,37.73
2018-12-14T10:49:00.048Z,38.77
2018-12-14T10:51:27.749Z,38.77
2018-12-14T10:53:55.231Z,38.83
2018-12-14T10:56:22.701Z,37.63
2018-12-14T10:58:50.205Z,33.47
2018-12-14T11:01:23.400Z,34.90
2018-12-14T11:03:50.895Z,34.30
2018-12-14T11:06:18.410Z,31.57
2018-12-14T11:08:45.888Z,33.37
2018-12-14T11:11:13.511Z,32.40
2018-12-14T11:13:40.995Z,32.03
2018-12-14T11:16:08.471Z,30.80
2018-12-14T11:18:35.983Z,31.50
2018-12-14T11:21:03.465Z,29.60
2018-12-14T11:23:30.967Z,29.67
2018-12-14T11:25:58.610Z,27.73
2018-12-14T11:28:26.089Z,28.17
2018-12-14T11:30:54.518Z,27.23
2018-12-14T11:33:22.028Z,28.33
2018-12-14T11:35:49.513Z,26.67
2018-12-14T11:38:17.005Z,25.83
2018-12-14T11:40:44.528Z,25.37
2018-12-14T11:43:12.005Z,24.77
2018-12-14T11:45:39.493Z,24.63
2018-12-14T11:48:07.007Z,25.23
2018-12-14T11:50:34.665Z,25.23
2018-12-14T11:53:02.145Z,24.67
2018-12-14T11:55:29.653Z,23.33
2018-12-14T11:57:57.128Z,24.43
2018-12-14T12:00:24.613Z,23.73
2018-12-14T12:02:52.157Z,24.73
2018-12-14T12:05:19.639Z,23.83
2018-12-14T12:07:47.918Z,22.93
2018-12-14T12:10:15.581Z,23.40
2018-12-14T12:12:43.253Z,24.00
2018-12-14T12:15:10.734Z,22.80
2018-12-14T12:17:39.046Z,23.53
2018-12-14T12:20:07.317Z,24.07
2018-12-14T12:22:34.797Z,24.63
2018-12-14T12:25:02.316Z,24.13
2018-12-14T12:27:29.795Z,25.83
2018-12-14T12:29:57.281Z,26.37
2018-12-14T12:32:24.805Z,27.77
2018-12-14T12:34:52.280Z,25.83
2018-12-14T12:37:20.887Z,25.50
2018-12-14T12:39:48.393Z,26.53
2018-12-14T12:42:15.884Z,26.00
2018-12-14T12:44:43.356Z,28.40
2018-12-14T12:47:10.861Z,26.37
2018-12-14T12:49:38.337Z,26.20
2018-12-14T12:52:05.865Z,28.27
2018-12-14T12:54:33.373Z,26.60
2018-12-14T12:57:00.849Z,26.80
2018-12-14T12:59:28.665Z,26.30
2018-12-14T13:01:56.264Z,26.13
2018-12-14T13:04:23.740Z,24.23
2018-12-14T13:06:51.301Z,25.03
2018-12-14T13:09:18.837Z,26.10
2018-12-14T13:11:46.313Z,24.87
2018-12-14T13:14:13.805Z,23.87
2018-12-14T13:16:41.327Z,24.17
2018-12-14T13:19:08.804Z,22.57
2018-12-14T13:21:36.287Z,23.10
2018-12-14T13:24:04.216Z,22.33
2018-12-14T13:26:31.692Z,21.70
2018-12-14T13:28:59.173Z,20.60
2018-12-14T13:31:26.669Z,21.10
2018-12-14T13:33:54.151Z,19.13
2018-12-14T13:36:21.634Z,19.47
2018-12-14T13:38:49.143Z,17.87
2018-12-14T13:41:16.638Z,18.90
2018-12-14T13:43:44.112Z,17.90
2018-12-14T13:46:11.624Z,17.83
2018-12-14T13:48:39.102Z,17.20
2018-12-14T13:51:06.587Z,16.70
2018-12-14T13:53:34.616Z,17.73
2018-12-14T13:56:02.095Z,16.73
2018-12-14T13:58:29.569Z,16.70
2018-12-14T14:00:57.116Z,15.40
2018-12-14T14:03:24.597Z,16.07
2018-12-14T14:05:52.077Z,16.50
2018-12-14T14:08:19.584Z,14.40
2018-12-14T14:10:47.065Z,15.23
2018-12-14T14:13:14.544Z,14.53
2018-12-14T14:15:42.047Z,14.67
2018-12-14T14:18:09.520Z,13.67
2018-12-14T14:20:37.000Z,14.00
2018-12-14T14:23:04.617Z,13.57
2018-12-14T14:25:32.585Z,12.93
2018-12-14T14:28:00.064Z,12.70
2018-12-14T14:30:27.561Z,11.93
2018-12-14T14:32:55.038Z,11.07
2018-12-14T14:35:22.514Z,11.93
2018-12-14T14:37:50.017Z,11.57
2018-12-14T14:40:17.504Z,11.00
2018-12-14T14:42:44.976Z,9.57
2018-12-14T14:45:12.484Z,9.13
2018-12-14T14:47:40.034Z,9.07
2018-12-14T14:50:14.947Z,9.30
2018-12-14T14:52:42.420Z,9.67
2018-12-14T14:55:10.313Z,9.93
2018-12-14T14:57:38.149Z,10.67
2018-12-14T15:00:06.512Z,10.97
2018-12-14T15:02:33.993Z,11.20
2018-12-14T15:05:01.506Z,11.37
2018-12-14T15:07:29.035Z,10.40
2018-12-14T15:09:56.824Z,9.80
2018-12-14T15:12:24.331Z,9.47
2018-12-14T15:14:51.802Z,9.53
2018-12-14T15:17:19.288Z,9.60
2018-12-14T15:19:46.808Z,9.50
2018-12-14T15:22:14.284Z,10.50
2018-12-14T15:24:41.758Z,10.33
2018-12-14T15:27:09.272Z,9.80
2018-12-14T15:29:36.777Z,9.43
2018-12-14T15:32:04.348Z,9.17
2018-12-14T15:34:31.865Z,9.20
2018-12-14T15:36:59.354Z,10.10
2018-12-14T15:39:26.821Z,8.60
2018-12-14T15:41:54.328Z,8.77
2018-12-14T15:44:21.862Z,9.80
2018-12-14T15:46:49.367Z,8.77
2018-12-14T15:49:16.993Z,9.80
2018-12-14T15:51:44.761Z,10.20
2018-12-14T15:54:12.356Z,10.17
2018-12-14T15:56:40.637Z,9.63
2018-12-14T15:59:08.109Z,10.23
2018-12-14T16:01:35.602Z,10.03
2018-12-14T16:04:03.112Z,10.43
2018-12-14T16:06:30.588Z,10.40
2018-12-14T16:08:58.065Z,10.87
2018-12-14T16:11:25.672Z,11.23
2018-12-14T16:13:53.580Z,11.80
2018-12-14T16:16:21.059Z,13.20
2018-12-14T16:18:48.610Z,12.37
2018-12-14T16:21:16.090Z,13.00
2018-12-14T16:23:43.566Z,12.93
2018-12-14T16:26:11.065Z,15.03
2018-12-14T16:28:40.256Z,14.30
2018-12-14T16:31:07.773Z,14.40
2018-12-14T16:33:35.268Z,13.07
2018-12-14T16:36:02.757Z,13.67
2018-12-14T16:38:30.237Z,12.37
2018-12-14T16:40:57.753Z,13.70
2018-12-14T16:43:25.234Z,13.00
2018-12-14T16:45:52.705Z,13.57
2018-12-14T16:48:20.217Z,13.73
2018-12-14T16:50:47.702Z,13.03
2018-12-14T16:53:15.191Z,13.17
2018-12-14T16:55:42.697Z,13.17
2018-12-14T16:58:10.323Z,12.93
2018-12-14T17:00:37.813Z,12.60
2018-12-14T17:03:05.320Z,13.30
2018-12-14T17:05:32.805Z,13.07
2018-12-14T17:08:00.304Z,12.77
2018-12-14T17:10:27.814Z,12.13
2018-12-14T17:12:55.294Z,12.60
2018-12-14T17:15:22.769Z,11.33
2018-12-14T17:17:50.285Z,12.30
2018-12-14T17:20:17.767Z,12.73
2018-12-14T17:22:45.252Z,12.73
2018-12-14T17:25:12.801Z,12.80
2018-12-14T17:27:40.280Z,13.53
2018-12-14T17:30:07.846Z,14.90
2018-12-14T17:32:35.349Z,13.33
2018-12-14T17:35:02.835Z,13.70
2018-12-14T17:37:30.352Z,14.00
2018-12-14T17:39:57.852Z,14.53
2018-12-14T17:42:25.328Z,15.63
2018-12-14T17:44:52.833Z,15.43
2018-12-14T17:47:20.341Z,15.97
2018-12-14T17:49:47.824Z,14.67
2018-12-14T17:52:15.302Z,15.93
2018-12-14T17:54:42.797Z,17.50
2018-12-14T17:57:10.276Z,16.13
2018-12-14T17:59:38.117Z,16.80
2018-12-14T18:02:05.618Z,16.90
2018-12-14T18:04:33.120Z,17.87
2018-12-14T18:07:00.617Z,16.43
2018-12-14T18:09:28.132Z,18.23
2018-12-14T18:11:55.613Z,17.90
2018-12-14T18:14:23.104Z,18.40
2018-12-14T18:16:50.613Z,17.67
2018-12-14T18:19:18.093Z,18.03
2018-12-14T18:21:45.569Z,18.10
2018-12-14T18:24:13.088Z,18.13
2018-12-14T18:26:40.560Z,18.93
2018-12-14T18:29:08.053Z,18.07
2018-12-14T18:31:35.564Z,18.93
2018-12-14T18:34:03.047Z,19.73
2018-12-14T18:36:30.552Z,19.73
2018-12-14T18:38:58.077Z,18.60
2018-12-14T18:41:25.549Z,19.43
2018-12-14T18:43:53.027Z,20.73
2018-12-14T18:46:20.530Z,20.50
2018-12-14T18:48:48.009Z,20.40
2018-12-14T18:51:15.502Z,21.23
2018-12-14T18:53:45.024Z,21.20
2018-12-14T18:56:12.497Z,20.37
2018-12-14T18:58:39.991Z,20.87
2018-12-14T19:01:07.509Z,20.83
2018-12-14T19:03:34.984Z,20.53
2018-12-14T19:06:02.480Z,21.60
2018-12-14T19:08:29.985Z,21.63
2018-12-14T19:10:57.473Z,21.27
2018-12-14T19:13:25.041Z,21.43
2018-12-14T19:15:52.552Z,22.47
2018-12-14T19:18:20.029Z,20.87
2018-12-14T19:20:47.506Z,21.73
2018-12-14T19:23:19.642Z,21.57
2018-12-14T19:25:44.545Z,20.93
2018-12-14T19:28:12.020Z,21.87
2018-12-14T19:30:39.512Z,22.47
2018-12-14T19:33:06.989Z,22.40
2018-12-14T19:35:34.474Z,22.83
2018-12-14T19:38:02.084Z,23.63
2018-12-14T19:40:29.574Z,24.03
2018-12-14T19:42:57.055Z,23.10
2018-12-14T19:45:24.552Z,23.90
2018-12-14T19:47:52.031Z,23.13
2018-12-14T19:50:19.512Z,25.43
2018-12-14T19:52:47.043Z,24.77
2018-12-14T19:55:14.516Z,24.47
2018-12-14T19:57:41.996Z,24.57
2018-12-14T20:00:11.781Z,24.33
2018-12-14T20:02:39.580Z,24.67
2018-12-14T20:05:08.044Z,24.60
2018-12-14T20:07:35.547Z,24.97
2018-12-14T20:10:03.619Z,25.13
2018-12-14T20:12:31.125Z,24.87
2018-12-14T20:14:58.641Z,24.33
2018-12-14T20:17:26.123Z,25.63
2018-12-14T20:19:53.593Z,26.33
2018-12-14T20:22:21.102Z,26.07
2018-12-14T20:24:48.588Z,26.07
2018-12-14T20:27:16.068Z,26.37
2018-12-14T20:29:43.580Z,24.30
2018-12-14T20:32:11.069Z,24.93
2018-12-14T20:34:38.549Z,25.50
2018-12-14T20:37:06.054Z,26.57
2018-12-14T20:39:33.532Z,25.93
2018-12-14T20:42:01.011Z,26.30
2018-12-14T20:44:28.510Z,27.13
2018-12-14T20:46:55.988Z,26.00
2018-12-14T20:49:23.469Z,27.60
2018-12-14T20:51:50.967Z,27.87
2018-12-14T20:54:18.440Z,27.63
2018-12-14T20:56:51.442Z,28.33
2018-12-14T20:59:15.436Z,28.50
2018-12-14T21:01:42.924Z,27.67
2018-12-14T21:04:10.736Z,28.73
2018-12-14T21:06:38.239Z,29.13
2018-12-14T21:09:06.117Z,26.97
2018-12-14T21:11:33.592Z,27.10
2018-12-14T21:14:01.100Z,28.40
2018-12-14T21:16:28.576Z,29.80
2018-12-14T21:18:56.050Z,29.43
2018-12-14T21:21:23.556Z,29.67
2018-12-14T21:23:51.048Z,29.20
2018-12-14T21:26:18.525Z,29.07
2018-12-14T21:28:46.036Z,29.27
2018-12-14T21:31:13.520Z,27.90
2018-12-14T21:33:41.003Z,27.00
2018-12-14T21:36:08.509Z,27.27
2018-12-14T21:38:35.990Z,27.70
2018-12-14T21:41:03.475Z,27.27
2018-12-14T21:43:30.976Z,26.77
2018-12-14T21:45:58.501Z,28.00
2018-12-14T21:48:25.989Z,27.23
2018-12-14T21:50:53.535Z,26.90
2018-12-14T21:53:21.037Z,27.83
2018-12-14T21:55:48.521Z,27.43
2018-12-14T21:58:16.028Z,26.57
2018-12-14T22:00:43.509Z,26.47
2018-12-14T22:03:10.987Z,27.07
2018-12-14T22:05:38.552Z,26.43
2018-12-14T22:08:06.100Z,25.73
2018-12-14T22:10:33.592Z,26.57
2018-12-14T22:13:01.112Z,26.67
2018-12-14T22:15:28.590Z,26.23
2018-12-14T22:17:56.076Z,25.70
2018-12-14T22:20:23.606Z,26.67
2018-12-14T22:22:51.090Z,27.73
2018-12-14T22:25:18.565Z,25.97
2018-12-14T22:27:46.079Z,26.80
2018-12-14T22:30:13.565Z,26.60
2018-12-14T22:32:41.081Z,26.60
2018-12-14T22:35:08.673Z,28.73
2018-12-14T22:37:36.161Z,30.83
2018-12-14T22:40:05.236Z,30.20
2018-12-14T22:42:32.736Z,28.97
2018-12-14T22:45:00.220Z,27.40
2018-12-14T22:47:27.709Z,29.63
2018-12-14T22:49:55.228Z,29.83
2018-12-14T22:52:22.713Z,27.53
2018-12-14T22:54:50.189Z,27.97
2018-12-14T22:57:17.699Z,27.77
2018-12-14T22:59:45.177Z,28.53
2018-12-14T23:02:12.860Z,28.00
2018-12-14T23:04:40.367Z,26.87
2018-12-14T23:07:07.856Z,29.07
2018-12-14T23:09:35.332Z,28.20
2018-12-14T23:12:02.847Z,29.10
2018-12-14T23:14:30.317Z,29.37
2018-12-14T23:16:57.796Z,29.17
2018-12-14T23:19:25.306Z,28.03
2018-12-14T23:21:52.780Z,27.67
2018-12-14T23:24:20.256Z,28.37
2018-12-14T23:26:47.759Z,28.63
2018-12-14T23:29:15.236Z,27.27
2018-12-14T23:31:42.712Z,26.50
2018-12-14T23:34:10.219Z,26.97
2018-12-14T23:36:37.699Z,28.10
2018-12-14T23:39:06.064Z,27.33
2018-12-14T23:41:33.576Z,27.23
2018-12-14T23:44:01.060Z,28.10
2018-12-14T23:46:28.538Z,27.50
2018-12-14T23:48:56.046Z,28.00
2018-12-14T23:51:23.517Z,28.23
2018-12-14T23:53:50.994Z,27.73
2018-12-14T23:56:18.489Z,28.37
2018-12-14T23:58:45.965Z,29.53
